Time;durP1;ratioP1;P1;durP2;ratioP2;P2;SDS_P1;SDS_P2;PMS_P1;PMS_P2;Temp;Humidity;BMP_temperature;BMP_pressure;BME280_temperature;BME280_humidity;BME280_pressure;Samples;Min_cycle;Max_cycle;Signal;HPM_P1;HPM_P2
2022/03/01 00:01:27;;;;;;;23.17;9.45;;;;;;;0.67;72.12;102182.56;5033424;28;20053;-74
2022/03/01 00:03:52;;;;;;;21.40;9.27;;;;;;;0.59;71.42;102142.63;5016547;28;20044;-75
2022/03/01 00:06:18;;;;;;;20.07;9.53;;;;;;;0.56;71.08;102126.97;5052154;28;20024;-74
2022/03/01 00:08:43;;;;;;;24.67;10.57;;;;;;;0.50;70.98;102121.97;5037133;28;20796;-74
2022/03/01 00:11:08;;;;;;;20.60;8.60;;;;;;;0.51;70.61;102126.31;5037563;28;20033;-74
2022/03/01 00:13:36;;;;;;;22.42;8.88;;;;;;;0.53;70.34;102112.19;5020929;28;20037;-74
2022/03/01 00:16:02;;;;;;;20.38;8.68;;;;;;;0.57;70.22;102118.16;5020504;28;20037;-74
2022/03/01 00:18:27;;;;;;;19.42;8.50;;;;;;;0.60;70.21;102126.75;5020495;28;20474;-74
2022/03/01 00:20:53;;;;;;;16.77;7.20;;;;;;;0.62;70.03;102111.78;5020378;28;20091;-74
2022/03/01 00:23:18;;;;;;;22.55;10.48;;;;;;;0.60;69.77;102102.25;5054975;28;20051;-74
2022/03/01 00:25:43;;;;;;;17.53;8.03;;;;;;;0.56;69.63;102096.31;5036927;28;20489;-74
2022/03/01 00:28:09;;;;;;;22.13;8.40;;;;;;;0.52;69.73;102099.13;5054754;28;20275;-75
2022/03/01 00:30:34;;;;;;;17.67;7.80;;;;;;;0.48;69.76;102108.03;5053283;28;20283;-74
2022/03/01 00:32:59;;;;;;;22.70;7.80;;;;;;;0.54;69.63;102110.41;5037069;28;20056;-74
2022/03/01 00:35:25;;;;;;;21.17;8.00;;;;;;;0.46;69.85;102109.88;5054718;28;20021;-74
2022/03/01 00:37:51;;;;;;;18.85;8.57;;;;;;;0.51;69.88;102115.78;5036810;28;20055;-75
2022/03/01 00:40:16;;;;;;;22.17;8.38;;;;;;;0.56;69.62;102124.31;5019863;28;20064;-74
2022/03/01 00:42:42;;;;;;;16.73;7.33;;;;;;;0.38;69.77;102097.06;5020249;28;20075;-74
2022/03/01 00:45:07;;;;;;;23.58;9.52;;;;;;;0.50;69.75;102117.56;5053058;28;20643;-74
2022/03/01 00:47:33;;;;;;;20.73;8.90;;;;;;;0.43;69.62;102112.63;5036620;28;20090;-75
2022/03/01 00:49:58;;;;;;;21.13;8.17;;;;;;;0.40;69.79;102117.09;5036288;28;20056;-74
2022/03/01 00:52:24;;;;;;;21.48;8.88;;;;;;;0.40;69.83;102124.97;5020158;28;20071;-74
2022/03/01 00:54:49;;;;;;;17.20;8.75;;;;;;;0.41;70.06;102129.31;5036687;28;20021;-75
2022/03/01 00:57:15;;;;;;;22.63;9.90;;;;;;;0.34;70.29;102140.97;5019959;28;20092;-74
2022/03/01 00:59:40;;;;;;;20.80;8.57;;;;;;;0.29;70.37;102152.63;5052784;28;20033;-74
2022/03/01 01:02:05;;;;;;;20.17;8.37;;;;;;;0.23;70.89;102169.47;5020139;28;20025;-74
2022/03/01 01:04:31;;;;;;;23.10;10.20;;;;;;;0.25;70.96;102175.50;5036368;28;20287;-74
2022/03/01 01:06:56;;;;;;;21.02;9.18;;;;;;;0.22;71.05;102185.28;5036557;28;20371;-74
2022/03/01 01:09:21;;;;;;;21.30;9.07;;;;;;;0.16;71.28;102196.88;5036398;28;20122;-75
2022/03/01 01:11:47;;;;;;;31.83;10.00;;;;;;;0.24;71.64;102199.22;5036274;28;20748;-74
2022/03/01 01:14:12;;;;;;;16.40;7.60;;;;;;;0.21;71.16;102194.91;5019784;28;20077;-74
2022/03/01 01:16:38;;;;;;;21.13;8.60;;;;;;;0.22;71.07;102180.91;5036224;28;20037;-76
2022/03/01 01:19:04;;;;;;;20.40;9.33;;;;;;;0.09;70.82;102156.00;5036174;28;20383;-75
2022/03/01 01:22:39;;;;;;;19.92;9.38;;;;;;;0.07;70.98;102155.22;5036108;28;20750;-74
2022/03/01 01:24:15;;;;;;;24.17;11.13;;;;;;;0.09;70.90;102148.97;5036068;28;20033;-73
2022/03/01 01:26:41;;;;;;;18.38;8.77;;;;;;;0.11;70.61;102133.19;5019683;28;20040;-73
2022/03/01 01:29:06;;;;;;;21.10;9.25;;;;;;;0.14;70.44;102128.66;5035739;28;20039;-74
2022/03/01 01:31:32;;;;;;;19.60;8.27;;;;;;;0.11;70.23;102125.31;5036199;28;20056;-74
2022/03/01 01:33:57;;;;;;;18.83;8.00;;;;;;;0.11;70.00;102109.53;5019132;28;20060;-74
2022/03/01 01:36:25;;;;;;;20.25;9.20;;;;;;;-0.02;69.91;102086.41;5036367;28;20039;-76
2022/03/01 01:38:53;;;;;;;19.83;8.07;;;;;;;-0.05;70.02;102089.16;5035817;28;20047;-74
2022/03/01 01:41:19;;;;;;;19.75;9.77;;;;;;;0.05;69.95;102097.53;5019337;28;20029;-74
2022/03/01 01:43:44;;;;;;;20.30;9.03;;;;;;;-0.04;69.65;102085.59;5052481;28;20128;-75
2022/03/01 01:46:09;;;;;;;24.20;9.67;;;;;;;-0.12;69.74;102064.03;5035923;28;20282;-74
2022/03/01 01:48:35;;;;;;;21.57;9.27;;;;;;;0.00;69.71;102091.59;5019049;28;20637;-74
2022/03/01 01:51:00;;;;;;;20.98;8.00;;;;;;;-0.05;69.68;102067.28;5052613;28;20049;-74
2022/03/01 01:53:26;;;;;;;16.80;8.50;;;;;;;-0.10;69.64;102054.34;5035606;28;20041;-75
2022/03/01 01:55:52;;;;;;;22.50;8.23;;;;;;;-0.11;69.55;102055.28;5035640;28;20017;-74
2022/03/01 01:58:18;;;;;;;25.58;9.10;;;;;;;-0.19;69.56;102044.22;5035410;28;20041;-74
2022/03/01 02:00:44;;;;;;;16.02;8.43;;;;;;;-0.23;69.39;102022.50;5019047;28;20025;-75
2022/03/01 02:03:09;;;;;;;22.45;8.32;;;;;;;-0.22;69.45;102044.34;5019017;28;20044;-75
2022/03/01 02:05:34;;;;;;;19.48;9.07;;;;;;;-0.20;69.58;102052.16;5019312;28;20024;-75
2022/03/01 02:08:00;;;;;;;22.83;7.70;;;;;;;-0.17;69.81;102075.66;5018945;28;20025;-74
2022/03/01 02:10:27;;;;;;;21.13;8.15;;;;;;;-0.18;69.74;102072.19;5018425;28;20114;-74
2022/03/01 02:12:52;;;;;;;20.88;8.50;;;;;;;-0.27;70.06;102077.78;5035447;28;20068;-75
2022/03/01 02:15:18;;;;;;;21.10;9.40;;;;;;;-0.25;70.17;102096.97;5018602;28;20052;-73
2022/03/01 02:17:43;;;;;;;20.17;8.70;;;;;;;-0.29;70.20;102085.72;5035433;28;20361;-75
2022/03/01 02:20:17;;;;;;;19.52;7.50;;;;;;;-0.41;70.38;102074.84;5018497;28;20037;-74
2022/03/01 02:22:43;;;;;;;19.83;8.05;;;;;;;-0.33;70.70;102110.38;5035174;28;20115;-74
2022/03/01 02:25:09;;;;;;;21.88;8.13;;;;;;;-0.35;71.02;102121.84;5052844;28;20035;-74
2022/03/01 02:27:35;;;;;;;18.40;8.27;;;;;;;-0.40;71.10;102129.88;5035087;28;20037;-74
2022/03/01 02:30:00;;;;;;;19.40;8.48;;;;;;;-0.35;71.24;102140.19;5034153;28;20016;-76
2022/03/01 02:32:26;;;;;;;25.13;9.93;;;;;;;-0.45;71.48;102127.44;5033197;28;20041;-74
2022/03/01 02:34:52;;;;;;;15.82;7.05;;;;;;;-0.51;71.72;102132.94;5034262;28;20025;-74
2022/03/01 02:37:17;;;;;;;25.58;10.07;;;;;;;-0.43;71.37;102151.84;5051760;28;20068;-74
2022/03/01 02:39:43;;;;;;;23.23;10.15;;;;;;;-0.51;71.80;102139.94;5050785;28;20033;-74
2022/03/01 02:42:09;;;;;;;21.75;10.05;;;;;;;-0.51;71.93;102146.03;5050708;28;20055;-75
2022/03/01 02:44:34;;;;;;;23.08;9.85;;;;;;;-0.44;71.87;102173.75;5017918;28;20112;-75
2022/03/01 02:46:59;;;;;;;21.35;10.27;;;;;;;-0.48;71.77;102172.16;5034775;28;20065;-77
2022/03/01 02:49:25;;;;;;;20.63;8.80;;;;;;;-0.48;71.83;102143.28;5050655;28;20040;-74
2022/03/01 02:51:50;;;;;;;26.20;11.87;;;;;;;-0.51;71.73;102148.66;5018221;28;20124;-75
2022/03/01 02:54:16;;;;;;;21.23;8.75;;;;;;;-0.50;71.70;102144.28;5051214;28;20287;-74
2022/03/01 02:56:41;;;;;;;23.85;9.70;;;;;;;-0.50;71.47;102154.75;5050713;28;20112;-75
2022/03/01 02:59:07;;;;;;;18.85;8.43;;;;;;;-0.51;71.41;102127.69;5050483;28;20128;-75
2022/03/01 03:01:33;;;;;;;;;;;;;;;-0.53;71.49;102140.00;5051232;28;20563;-75
2022/03/01 03:03:59;;;;;;;20.50;9.00;;;;;;;-0.60;71.77;102143.75;5034357;28;19912;-75
2022/03/01 03:06:24;;;;;;;26.70;8.65;;;;;;;-0.63;71.79;102154.38;5050931;28;20033;-74
2022/03/01 03:08:50;;;;;;;24.00;8.27;;;;;;;-0.50;71.61;102170.50;5033969;28;20370;-75
2022/03/01 03:11:15;;;;;;;18.88;8.75;;;;;;;-0.59;71.34;102123.63;5050423;28;20474;-75
2022/03/01 03:13:41;;;;;;;22.42;8.90;;;;;;;-0.73;71.24;102095.28;5051015;28;20187;-75
2022/03/01 03:16:07;;;;;;;18.52;7.68;;;;;;;-0.73;71.34;102100.53;5050620;28;20432;-75
2022/03/01 03:18:33;;;;;;;;;;;;;;;-0.81;71.69;102116.53;5034307;28;20492;-75
2022/03/01 03:20:58;;;;;;;22.92;10.73;;;;;;;-0.88;71.72;102108.03;5033773;28;19960;-75
2022/03/01 03:23:24;;;;;;;20.88;8.85;;;;;;;-0.90;72.26;102128.22;5050437;28;20078;-75
2022/03/01 03:25:50;;;;;;;20.00;9.23;;;;;;;-0.92;72.00;102127.41;5050153;28;20040;-75
2022/03/01 03:28:15;;;;;;;23.33;9.38;;;;;;;-0.96;72.43;102135.44;5050577;28;20033;-75
2022/03/01 03:30:41;;;;;;;23.13;8.68;;;;;;;-1.04;72.31;102142.72;5033598;28;20322;-74
2022/03/01 03:33:06;;;;;;;20.05;8.25;;;;;;;-1.05;72.65;102168.09;5050274;28;20025;-75
2022/03/01 03:35:32;;;;;;;20.25;9.05;;;;;;;-1.09;73.04;102171.72;5050448;28;20041;-75
2022/03/01 03:37:58;;;;;;;20.20;8.57;;;;;;;-1.09;73.09;102192.69;5050137;28;20021;-75
2022/03/01 03:40:23;;;;;;;19.15;8.13;;;;;;;-1.06;73.10;102197.81;5032373;28;20120;-75
2022/03/01 03:42:49;;;;;;;19.75;8.00;;;;;;;-1.10;73.14;102183.09;5033378;28;20032;-75
2022/03/01 03:45:15;;;;;;;25.20;9.35;;;;;;;-1.08;72.96;102190.03;5051248;28;20032;-74
2022/03/01 03:47:41;;;;;;;23.98;8.93;;;;;;;-1.13;73.29;102186.69;5049488;28;20033;-74
2022/03/01 03:50:09;;;;;;;19.45;8.85;;;;;;;-1.12;73.49;102188.41;5049868;28;20040;-75
2022/03/01 03:52:36;;;;;;;21.80;8.60;;;;;;;-1.17;73.39;102189.44;5016900;28;20481;-74
2022/03/01 03:55:01;;;;;;;22.75;9.90;;;;;;;-1.17;73.59;102195.56;5016924;28;20032;-75
2022/03/01 03:57:26;;;;;;;24.73;9.68;;;;;;;-1.18;73.52;102198.25;5050362;28;20029;-76
2022/03/01 03:59:52;;;;;;;25.42;9.57;;;;;;;-1.16;73.51;102204.28;5033251;28;20095;-74
2022/03/01 04:02:17;;;;;;;22.03;9.23;;;;;;;-1.34;73.60;102176.91;5049623;28;20029;-74
2022/03/01 04:04:42;;;;;;;21.13;9.07;;;;;;;-1.31;73.49;102189.94;5049227;28;20289;-75
2022/03/01 04:07:09;;;;;;;26.25;9.85;;;;;;;-1.39;73.62;102182.31;5049464;28;20067;-74
2022/03/01 04:09:35;;;;;;;22.20;8.55;;;;;;;-1.47;73.67;102175.63;5049078;28;20124;-75
2022/03/01 04:12:00;;;;;;;21.63;8.73;;;;;;;-1.34;73.71;102193.50;5049503;28;20231;-75
2022/03/01 04:14:25;;;;;;;23.83;9.82;;;;;;;-1.38;73.61;102176.19;5049187;28;20044;-74
2022/03/01 04:16:51;;;;;;;23.00;9.23;;;;;;;-1.49;73.75;102175.66;5050785;28;20075;-75
2022/03/01 04:19:17;;;;;;;20.25;8.80;;;;;;;-1.42;73.80;102194.66;5048878;28;20752;-75
2022/03/01 04:21:43;;;;;;;21.10;8.75;;;;;;;-1.47;73.96;102184.34;5016361;28;20063;-75
2022/03/01 04:24:09;;;;;;;22.00;9.63;;;;;;;-1.40;73.71;102196.34;5049094;28;20033;-75
2022/03/01 04:26:34;;;;;;;21.50;10.40;;;;;;;-1.42;73.78;102197.28;5050719;28;20040;-75
2022/03/01 04:28:59;;;;;;;24.65;9.57;;;;;;;-1.46;73.83;102196.53;5048928;28;20124;-75
2022/03/01 04:31:25;;;;;;;21.70;9.57;;;;;;;-1.49;73.85;102186.16;5050698;28;20028;-75
2022/03/01 04:33:50;;;;;;;20.10;9.68;;;;;;;-1.61;73.91;102178.69;5050210;28;20280;-75
2022/03/01 04:36:16;;;;;;;25.88;8.88;;;;;;;-1.58;74.41;102200.38;5049031;28;20072;-77
2022/03/01 04:38:42;;;;;;;23.33;10.25;;;;;;;-1.61;74.68;102226.69;5015694;28;20485;-75
2022/03/01 04:41:09;;;;;;;21.38;9.90;;;;;;;-1.62;74.95;102240.66;5048531;28;20417;-75
2022/03/01 04:43:35;;;;;;;22.95;9.10;;;;;;;-1.68;74.73;102227.78;5032114;28;20112;-75
2022/03/01 04:46:00;;;;;;;20.48;8.43;;;;;;;-1.67;74.91;102239.97;5032205;28;20148;-75
2022/03/01 04:48:27;;;;;;;24.83;11.43;;;;;;;-1.78;75.31;102248.16;5015043;28;20119;-75
2022/03/01 04:50:52;;;;;;;23.85;10.07;;;;;;;-1.72;75.32;102258.44;5015147;28;20125;-75
2022/03/01 04:53:18;;;;;;;25.50;9.98;;;;;;;-1.68;75.46;102277.53;5051449;28;20115;-75
2022/03/01 04:55:44;;;;;;;25.40;11.18;;;;;;;-1.77;75.76;102283.91;5052306;28;20037;-75
2022/03/01 04:58:09;;;;;;;22.52;9.73;;;;;;;-1.73;75.78;102275.06;5052461;28;20120;-75
2022/03/01 05:00:35;;;;;;;22.33;9.75;;;;;;;-1.75;75.73;102287.34;5035505;28;20033;-75
2022/03/01 05:03:00;;;;;;;22.30;10.05;;;;;;;-1.76;75.78;102283.00;5052368;28;20032;-75
2022/03/01 05:05:26;;;;;;;22.40;9.38;;;;;;;-1.81;75.98;102271.78;5052065;28;20474;-75
2022/03/01 05:07:51;;;;;;;21.45;10.15;;;;;;;-1.93;76.22;102251.22;5053766;28;20029;-75
2022/03/01 05:10:18;;;;;;;21.25;9.77;;;;;;;-1.82;76.54;102287.56;5035331;28;20095;-75
2022/03/01 05:13:04;;;;;;;23.92;9.48;;;;;;;-1.78;76.29;102287.44;5052269;28;20063;-75
2022/03/01 05:15:29;;;;;;;;;;;;;;;-1.85;76.59;102288.53;5034987;28;20036;-75
2022/03/01 05:17:56;;;;;;;23.17;9.35;;;;;;;-1.97;76.67;102276.66;5052330;28;19913;-74
2022/03/01 05:20:22;;;;;;;26.73;11.10;;;;;;;-1.99;76.87;102285.41;5053150;28;20036;-75
2022/03/01 05:22:48;;;;;;;18.23;7.50;;;;;;;-2.07;77.27;102290.88;5035506;28;20025;-75
2022/03/01 05:25:17;;;;;;;25.65;10.13;;;;;;;-2.09;77.47;102308.38;5052192;28;20039;-75
2022/03/01 05:27:44;;;;;;;27.50;10.77;;;;;;;-2.06;77.63;102323.13;5035418;28;20046;-74
2022/03/01 05:30:12;;;;;;;24.75;10.70;;;;;;;-2.01;77.79;102327.38;5034922;28;20029;-75
2022/03/01 05:32:41;;;;;;;24.15;10.55;;;;;;;-2.17;78.28;102332.16;5018993;28;20025;-75
2022/03/01 05:35:11;;;;;;;28.83;11.35;;;;;;;-2.15;78.42;102351.28;5051917;28;20037;-75
2022/03/01 05:37:38;;;;;;;23.58;10.05;;;;;;;-2.13;78.98;102370.44;5053430;28;20048;-75
2022/03/01 05:40:05;;;;;;;26.08;11.30;;;;;;;-2.15;79.23;102384.47;5051052;28;20033;-75
2022/03/01 05:42:31;;;;;;;23.83;10.95;;;;;;;-2.14;79.40;102396.63;5051906;28;20060;-75
2022/03/01 05:44:56;;;;;;;24.10;9.77;;;;;;;-2.15;79.67;102393.16;5051926;28;20064;-75
2022/03/01 05:47:22;;;;;;;24.00;11.23;;;;;;;-2.18;80.05;102402.84;5034857;28;20041;-75
2022/03/01 05:49:48;;;;;;;26.23;10.18;;;;;;;-2.25;80.32;102415.22;5051394;28;20032;-75
2022/03/01 05:52:13;;;;;;;28.00;10.65;;;;;;;-2.18;80.60;102419.44;5051551;28;20485;-75
2022/03/01 05:54:39;;;;;;;22.13;10.60;;;;;;;-2.21;80.40;102403.78;5051448;28;20017;-75
2022/03/01 05:57:05;;;;;;;22.65;10.77;;;;;;;-2.27;80.51;102398.72;5052702;28;20037;-75
2022/03/01 05:59:30;;;;;;;25.23;10.63;;;;;;;-2.20;80.55;102400.28;5051307;28;20035;-75
2022/03/01 06:01:55;;;;;;;21.30;10.88;;;;;;;-2.17;80.55;102394.97;5051591;28;20025;-76
2022/03/01 06:04:21;;;;;;;33.20;10.07;;;;;;;-2.22;80.73;102394.22;5050338;28;20637;-75
2022/03/01 06:06:46;;;;;;;30.38;12.73;;;;;;;-2.23;80.86;102389.88;5034873;28;20807;-75
2022/03/01 06:09:12;;;;;;;24.00;10.15;;;;;;;-2.18;80.84;102397.59;5050617;28;20024;-75
2022/03/01 06:11:37;;;;;;;26.42;10.77;;;;;;;-2.25;81.16;102401.28;5051307;28;20422;-75
2022/03/01 06:14:02;;;;;;;22.77;10.70;;;;;;;-2.29;80.93;102410.13;5051212;28;20303;-75
2022/03/01 06:16:28;;;;;;;26.88;10.75;;;;;;;-2.28;81.11;102404.84;5051226;28;20053;-75
2022/03/01 06:18:53;;;;;;;22.13;9.83;;;;;;;-2.34;80.99;102402.41;5052133;28;20037;-76
2022/03/01 06:21:19;;;;;;;29.15;11.02;;;;;;;-2.32;81.18;102413.66;5051122;28;20322;-75
2022/03/01 06:23:45;;;;;;;24.80;11.20;;;;;;;-2.33;81.50;102415.41;5051797;28;20048;-75
2022/03/01 06:26:11;;;;;;;25.95;11.55;;;;;;;-2.36;81.53;102432.97;5017995;28;20432;-75
2022/03/01 06:28:37;;;;;;;23.50;10.07;;;;;;;-2.38;81.85;102430.38;5050634;28;20069;-75
2022/03/01 06:31:02;;;;;;;23.35;9.10;;;;;;;-2.23;82.07;102450.06;5050930;28;20052;-75
2022/03/01 06:33:27;;;;;;;25.95;11.73;;;;;;;-2.29;81.87;102445.00;5051962;28;20043;-76
2022/03/01 06:35:53;;;;;;;28.48;10.30;;;;;;;-2.32;81.92;102429.34;5050645;28;20028;-74
2022/03/01 06:38:18;;;;;;;29.30;11.05;;;;;;;-2.21;81.83;102435.19;5033857;28;20044;-75
2022/03/01 06:40:44;;;;;;;26.27;11.07;;;;;;;-2.26;81.91;102428.34;5049931;28;20033;-75
2022/03/01 06:43:09;;;;;;;22.67;10.00;;;;;;;-2.24;81.98;102440.50;5033923;28;20029;-75
2022/03/01 06:45:35;;;;;;;20.65;9.95;;;;;;;-2.17;81.89;102447.28;5033906;28;20163;-76
2022/03/01 06:48:00;;;;;;;25.67;10.93;;;;;;;-2.15;81.98;102447.28;5050297;28;20122;-76
2022/03/01 06:50:26;;;;;;;25.40;10.45;;;;;;;-2.12;81.87;102448.03;5033464;28;20025;-75
2022/03/01 06:52:52;;;;;;;24.48;11.55;;;;;;;-1.98;81.78;102441.59;5050389;28;20045;-75
2022/03/01 06:55:21;;;;;;;24.73;10.98;;;;;;;-1.88;81.72;102444.81;5033447;28;20496;-76
2022/03/01 06:57:47;;;;;;;27.27;11.57;;;;;;;-1.97;81.27;102424.97;5033513;28;20122;-75
2022/03/01 07:00:13;;;;;;;;;;;;;;;-1.86;81.08;102425.56;5017182;28;20025;-77
2022/03/01 07:02:39;;;;;;;23.45;9.60;;;;;;;-1.79;80.88;102418.38;5033808;28;20041;-75
2022/03/01 07:05:07;;;;;;;29.80;12.68;;;;;;;-1.38;80.33;102432.94;5055091;28;20104;-75
2022/03/01 07:07:32;;;;;;;24.63;10.60;;;;;;;-0.98;79.47;102420.44;5046031;28;20045;-76
2022/03/01 07:09:58;;;;;;;21.48;9.73;;;;;;;-0.82;78.06;102353.50;5066084;28;20034;-75
2022/03/01 07:12:23;;;;;;;42.85;11.35;;;;;;;-1.01;77.26;102290.28;5051401;28;20037;-76
2022/03/01 07:14:48;;;;;;;23.17;10.30;;;;;;;-0.74;77.19;102311.25;5049518;28;20075;-77
2022/03/01 07:17:16;;;;;;;25.00;9.73;;;;;;;-0.58;76.05;102251.28;5050334;28;20045;-75
2022/03/01 07:19:42;;;;;;;28.45;11.35;;;;;;;-0.74;75.66;102208.97;5049626;28;20020;-76
2022/03/01 07:22:07;;;;;;;26.53;11.07;;;;;;;-0.40;75.38;102234.84;5049714;28;20120;-76
2022/03/01 07:24:32;;;;;;;29.30;10.70;;;;;;;-0.47;74.98;102202.75;5049980;28;20267;-76
2022/03/01 07:26:58;;;;;;;26.73;12.00;;;;;;;-0.16;74.48;102227.03;5051192;28;20287;-76
2022/03/01 07:29:23;;;;;;;29.08;10.90;;;;;;;-0.23;74.12;102219.34;5049639;28;20033;-75
2022/03/01 07:31:48;;;;;;;24.95;10.65;;;;;;;-0.11;73.54;102183.91;5033399;28;20432;-76
2022/03/01 07:34:23;;;;;;;22.48;9.90;;;;;;;0.07;72.74;102166.59;5049732;28;20028;-76
2022/03/01 07:36:49;;;;;;;20.73;10.25;;;;;;;0.32;71.80;102134.09;5033330;28;20124;-75
2022/03/01 07:39:15;;;;;;;24.92;11.02;;;;;;;0.83;70.80;102127.56;5016103;28;20032;-76
2022/03/01 07:41:40;;;;;;;24.48;10.43;;;;;;;1.05;69.57;102078.41;5032657;28;20033;-76
2022/03/01 07:44:06;;;;;;;22.95;10.00;;;;;;;0.47;69.54;102002.09;5032048;28;20556;-75
2022/03/01 07:46:31;;;;;;;24.88;9.95;;;;;;;0.45;69.60;102008.31;5031574;28;20070;-75
2022/03/01 07:48:56;;;;;;;18.50;10.00;;;;;;;0.55;69.92;102033.28;5031267;28;20391;-76
2022/03/01 07:51:22;;;;;;;26.48;11.15;;;;;;;-0.37;70.43;101951.34;5049504;28;20029;-76
2022/03/01 07:53:47;;;;;;;20.37;9.63;;;;;;;-0.09;71.72;102087.56;5032683;28;20032;-75
2022/03/01 07:56:14;;;;;;;23.42;10.43;;;;;;;0.05;71.61;102094.03;5031414;28;20497;-76
2022/03/01 07:58:39;;;;;;;24.50;10.65;;;;;;;-0.19;71.90;102096.69;5015680;28;20033;-75
2022/03/01 08:01:05;;;;;;;22.35;9.82;;;;;;;0.02;72.13;102144.88;5032560;28;20039;-76
2022/03/01 08:03:30;;;;;;;20.83;10.17;;;;;;;0.49;71.40;102155.28;5050387;28;20025;-75
2022/03/01 08:05:55;;;;;;;24.23;11.40;;;;;;;0.51;70.67;102098.25;5015740;28;20283;-75
2022/03/01 08:08:21;;;;;;;27.40;10.30;;;;;;;0.50;69.75;102051.88;5032109;28;20108;-76
2022/03/01 08:10:49;;;;;;;23.05;10.20;;;;;;;1.06;68.96;102084.50;5015995;28;20477;-76
2022/03/01 08:13:14;;;;;;;26.88;10.57;;;;;;;1.52;68.87;102103.44;5050342;28;20075;-75
2022/03/01 08:15:39;;;;;;;21.67;10.77;;;;;;;1.15;67.75;101956.97;5016068;28;20061;-75
2022/03/01 08:18:05;;;;;;;20.92;10.30;;;;;;;1.62;67.16;102004.72;5032512;28;20208;-75
2022/03/01 08:20:31;;;;;;;22.42;10.32;;;;;;;1.96;65.83;101950.34;5015689;28;20067;-76
2022/03/01 08:22:58;;;;;;;25.25;11.82;;;;;;;2.19;65.21;101932.53;5032006;28;20087;-76
2022/03/01 08:25:23;;;;;;;;;;;;;;;2.51;64.15;101900.06;5016403;28;20083;-76
2022/03/01 08:27:49;;;;;;;24.65;10.75;;;;;;;3.13;62.94;101909.91;5034013;28;20369;-76
2022/03/01 08:30:14;;;;;;;22.97;11.13;;;;;;;3.08;61.78;101812.53;5054122;28;20025;-75
2022/03/01 08:32:40;;;;;;;20.63;9.85;;;;;;;3.10;61.25;101760.50;5052981;28;20279;-75
2022/03/01 08:35:06;;;;;;;20.80;9.80;;;;;;;3.25;60.41;101753.47;5036300;28;20091;-75
2022/03/01 08:37:32;;;;;;;18.40;9.70;;;;;;;3.12;59.90;101695.31;5036000;28;20061;-76
2022/03/01 08:39:57;;;;;;;24.10;11.32;;;;;;;3.63;59.55;101757.41;5019431;28;20052;-76
2022/03/01 08:42:23;;;;;;;21.10;10.23;;;;;;;2.65;60.17;101669.94;5036001;28;20061;-77
2022/03/01 08:44:48;;;;;;;19.53;10.87;;;;;;;2.99;60.28;101741.81;5019574;28;20807;-77
2022/03/01 08:47:15;;;;;;;20.75;10.50;;;;;;;2.69;60.45;101711.00;5036781;28;20174;-76
2022/03/01 08:49:40;;;;;;;20.65;10.13;;;;;;;1.87;61.87;101713.81;5035806;28;20593;-75
2022/03/01 08:52:05;;;;;;;27.80;11.13;;;;;;;2.21;62.70;101830.56;5054059;28;20068;-76
2022/03/01 08:54:31;;;;;;;22.13;10.80;;;;;;;1.83;62.88;101789.50;5051777;28;20072;-74
2022/03/01 08:56:56;;;;;;;24.60;11.17;;;;;;;1.55;63.62;101808.50;5018472;28;20287;-76
2022/03/01 08:59:22;;;;;;;24.33;10.60;;;;;;;1.66;63.90;101869.38;5034232;28;20482;-76
2022/03/01 09:01:47;;;;;;;25.25;11.82;;;;;;;1.33;64.88;101881.56;5018654;28;20036;-76
2022/03/01 09:04:13;;;;;;;28.57;11.17;;;;;;;0.95;65.49;101877.22;5034902;28;20064;-75
2022/03/01 09:06:38;;;;;;;25.60;11.90;;;;;;;1.04;66.04;101941.69;5018481;28;20033;-76
2022/03/01 09:09:04;;;;;;;23.25;10.35;;;;;;;1.22;66.40;102003.97;5035014;28;20500;-76
2022/03/01 09:11:30;;;;;;;22.35;11.07;;;;;;;1.14;66.32;101977.13;5053725;28;20040;-75
2022/03/01 09:13:55;;;;;;;23.67;11.43;;;;;;;1.09;66.56;101981.78;5035515;28;20029;-75
2022/03/01 09:16:21;;;;;;;44.50;11.32;;;;;;;1.97;66.11;102093.47;5035245;28;20115;-76
2022/03/01 09:18:46;;;;;;;29.55;11.05;;;;;;;2.57;65.00;102083.44;5052966;28;20090;-75
2022/03/01 09:21:11;;;;;;;24.03;12.10;;;;;;;1.96;64.50;101902.09;5035327;28;20436;-75
2022/03/01 09:23:37;;;;;;;17.47;10.00;;;;;;;2.62;63.94;102002.34;5018831;28;20020;-76
2022/03/01 09:26:02;;;;;;;26.33;11.20;;;;;;;3.37;62.55;102000.03;5018894;28;20032;-76
2022/03/01 09:28:28;;;;;;;21.70;10.93;;;;;;;4.47;61.08;102027.19;5034945;28;20021;-74
2022/03/01 09:30:53;;;;;;;24.03;11.03;;;;;;;4.22;58.33;101726.44;5052749;28;20041;-76
2022/03/01 09:33:19;;;;;;;22.67;9.85;;;;;;;5.09;57.74;101825.78;5018648;28;20335;-75
2022/03/01 09:35:46;;;;;;;24.83;11.23;;;;;;;4.19;57.11;101639.41;5034844;28;20041;-75
2022/03/01 09:38:11;;;;;;;26.25;10.63;;;;;;;3.76;57.86;101624.50;5017905;28;20036;-75
2022/03/01 09:40:37;;;;;;;23.52;10.98;;;;;;;3.48;58.51;101643.03;5033973;28;20033;-75
2022/03/01 09:43:03;;;;;;;29.23;12.15;;;;;;;3.25;59.47;101721.81;5018564;28;20486;-75
2022/03/01 09:45:28;;;;;;;23.67;11.77;;;;;;;3.34;60.04;101789.88;5017813;28;20098;-76
2022/03/01 09:47:54;;;;;;;26.40;13.20;;;;;;;3.35;60.71;101854.97;5035058;28;20032;-75
2022/03/01 09:50:27;;;;;;;22.92;10.73;;;;;;;3.50;60.72;101868.22;5052406;28;20123;-75
2022/03/01 09:52:57;;;;;;;26.27;12.95;;;;;;;2.99;60.32;101741.81;5034927;28;20123;-75
2022/03/01 09:55:22;;;;;;;24.17;10.90;;;;;;;3.88;62.68;102057.97;5034421;28;20395;-75
2022/03/01 09:57:48;;;;;;;20.63;11.02;;;;;;;3.91;60.54;101904.53;5018102;28;20025;-75
2022/03/01 10:00:13;;;;;;;24.30;11.17;;;;;;;3.68;59.20;101765.94;5057402;28;20032;-76
2022/03/01 10:02:41;;;;;;;25.00;11.55;;;;;;;4.03;58.96;101800.75;5037242;28;20371;-74
2022/03/01 10:05:08;;;;;;;20.52;10.25;;;;;;;4.09;58.44;101763.38;5050889;28;20040;-75
2022/03/01 10:07:34;;;;;;;22.75;11.50;;;;;;;3.68;58.68;101694.63;5050978;28;20048;-75
2022/03/01 10:10:07;;;;;;;26.85;11.70;;;;;;;4.13;58.78;101824.81;5034277;28;20037;-75
2022/03/01 10:12:33;;;;;;;29.77;12.00;;;;;;;5.04;57.40;101836.66;5017775;28;20066;-76
2022/03/01 10:15:03;;;;;;;23.85;11.40;;;;;;;3.90;57.49;101609.56;5034042;28;20541;-75
2022/03/01 10:17:58;;;;;;;30.95;12.57;;;;;;;3.83;58.31;101706.00;5052027;28;20044;-75
2022/03/01 10:20:24;;;;;;;25.23;12.93;;;;;;;3.96;58.96;101805.56;5038016;28;20059;-75
2022/03/01 10:22:52;;;;;;;26.88;12.50;;;;;;;4.27;58.66;101823.97;5034270;28;20108;-75
2022/03/01 10:25:20;;;;;;;25.65;11.48;;;;;;;4.76;57.83;101820.88;5050548;28;20036;-75
2022/03/01 10:27:50;;;;;;;24.63;11.20;;;;;;;4.06;58.45;101731.00;5034223;28;20208;-75
2022/03/01 10:30:30;;;;;;;29.63;13.93;;;;;;;4.26;57.70;101735.03;5050422;28;20033;-76
2022/03/01 10:33:11;;;;;;;22.48;10.65;;;;;;;4.22;58.37;101748.44;5050724;28;20378;-75
2022/03/01 10:35:42;;;;;;;23.75;11.68;;;;;;;5.24;58.11;101903.34;5033912;28;20040;-75
2022/03/01 10:38:09;;;;;;;23.50;12.02;;;;;;;5.93;56.50;101870.47;5034032;28;20048;-75
2022/03/01 10:40:36;;;;;;;28.42;11.88;;;;;;;4.93;56.95;101717.41;5051146;28;20078;-75
2022/03/01 10:43:04;;;;;;;25.13;11.93;;;;;;;4.54;57.54;101716.47;5051973;28;20482;-76
2022/03/01 10:45:35;;;;;;;24.80;11.45;;;;;;;5.81;56.81;101860.69;5017069;28;20059;-75
2022/03/01 10:48:02;;;;;;;24.90;12.80;;;;;;;4.62;56.93;101658.59;5033415;28;20036;-76
2022/03/01 10:50:27;;;;;;;27.08;13.65;;;;;;;4.83;57.07;101718.97;5033009;28;20029;-76
2022/03/01 10:52:53;;;;;;;27.87;12.20;;;;;;;5.25;56.84;101788.56;5050136;28;20032;-75
2022/03/01 10:55:33;;;;;;;27.43;11.63;;;;;;;4.73;56.72;101673.78;5049984;28;20794;-75
2022/03/01 10:58:08;;;;;;;22.42;11.57;;;;;;;5.61;56.43;101800.25;5049631;28;20033;-76
2022/03/01 11:00:35;;;;;;;25.38;11.93;;;;;;;5.77;55.35;101705.50;5033237;28;20045;-75
2022/03/01 11:03:03;;;;;;;24.15;11.90;;;;;;;6.12;54.71;101723.41;5033267;28;20551;-76
2022/03/01 11:05:30;;;;;;;27.23;13.40;;;;;;;6.09;54.24;101646.75;5033426;28;20057;-76
2022/03/01 11:08:00;;;;;;;25.27;11.80;;;;;;;7.58;53.27;101795.75;5049586;28;20123;-75
2022/03/01 11:10:26;;;;;;;26.85;13.75;;;;;;;7.97;51.64;101684.59;5049999;28;20082;-75
2022/03/01 11:12:53;;;;;;;23.98;12.60;;;;;;;6.50;51.91;101425.28;5049772;28;20029;-75